sensor_id;sensor_type;location;lat;lon;timestamp;temperature;humidity
25092;DHT22;13082;52.374;4.946;2022-12-24T00:01:08;10.60;99.90
25092;DHT22;13082;52.374;4.946;2022-12-24T00:03:35;10.60;99.90
25092;DHT22;13082;52.374;4.946;2022-12-24T00:06:09;10.60;99.90
25092;DHT22;13082;52.374;4.946;2022-12-24T00:08:37;10.60;99.90
25092;DHT22;13082;52.374;4.946;2022-12-24T00:11:05;10.60;99.90
25092;DHT22;13082;52.374;4.946;2022-12-24T00:13:31;10.70;99.90
25092;DHT22;13082;52.374;4.946;2022-12-24T00:15:57;10.70;99.90
25092;DHT22;13082;52.374;4.946;2022-12-24T00:18:22;10.60;99.90
25092;DHT22;13082;52.374;4.946;2022-12-24T00:20:49;10.70;99.90
25092;DHT22;13082;52.374;4.946;2022-12-24T00:23:15;10.60;99.90
25092;DHT22;13082;52.374;4.946;2022-12-24T00:25:41;10.60;99.90
25092;DHT22;13082;52.374;4.946;2022-12-24T00:28:06;10.60;99.90
25092;DHT22;13082;52.374;4.946;2022-12-24T00:30:32;10.60;99.90
25092;DHT22;13082;52.374;4.946;2022-12-24T00:32:57;10.60;99.90
25092;DHT22;13082;52.374;4.946;2022-12-24T00:35:23;10.60;99.90
25092;DHT22;13082;52.374;4.946;2022-12-24T00:37:49;10.60;99.90
25092;DHT22;13082;52.374;4.946;2022-12-24T00:40:16;10.60;99.90
25092;DHT22;13082;52.374;4.946;2022-12-24T00:42:41;10.60;99.90
25092;DHT22;13082;52.374;4.946;2022-12-24T00:45:08;10.60;99.90
25092;DHT22;13082;52.374;4.946;2022-12-24T00:47:34;10.50;99.90
25092;DHT22;13082;52.374;4.946;2022-12-24T00:49:59;10.50;99.90
25092;DHT22;13082;52.374;4.946;2022-12-24T00:52:26;10.50;99.90
25092;DHT22;13082;52.374;4.946;2022-12-24T00:54:52;10.50;99.90
25092;DHT22;13082;52.374;4.946;2022-12-24T00:57:18;10.50;99.90
25092;DHT22;13082;52.374;4.946;2022-12-24T00:59:44;10.40;99.90
25092;DHT22;13082;52.374;4.946;2022-12-24T01:02:09;10.40;99.90
25092;DHT22;13082;52.374;4.946;2022-12-24T01:04:35;10.40;99.90
25092;DHT22;13082;52.374;4.946;2022-12-24T01:07:22;10.40;99.90
25092;DHT22;13082;52.374;4.946;2022-12-24T01:09:48;10.40;99.90
25092;DHT22;13082;52.374;4.946;2022-12-24T01:12:13;10.40;99.90
25092;DHT22;13082;52.374;4.946;2022-12-24T01:14:39;10.40;99.90
25092;DHT22;13082;52.374;4.946;2022-12-24T01:17:04;10.30;99.90
25092;DHT22;13082;52.374;4.946;2022-12-24T01:19:30;10.30;99.90
25092;DHT22;13082;52.374;4.946;2022-12-24T01:21:57;10.30;99.90
25092;DHT22;13082;52.374;4.946;2022-12-24T01:24:22;10.30;99.90
25092;DHT22;13082;52.374;4.946;2022-12-24T01:26:48;10.30;99.90
25092;DHT22;13082;52.374;4.946;2022-12-24T01:29:14;10.30;99.90
25092;DHT22;13082;52.374;4.946;2022-12-24T01:31:40;10.30;99.90
25092;DHT22;13082;52.374;4.946;2022-12-24T01:34:05;10.30;99.90
25092;DHT22;13082;52.374;4.946;2022-12-24T01:36:31;10.30;99.90
25092;DHT22;13082;52.374;4.946;2022-12-24T01:38:57;10.30;99.90
25092;DHT22;13082;52.374;4.946;2022-12-24T01:41:23;10.30;99.90
25092;DHT22;13082;52.374;4.946;2022-12-24T01:46:46;10.30;99.90
25092;DHT22;13082;52.374;4.946;2022-12-24T01:49:13;10.30;99.90
25092;DHT22;13082;52.374;4.946;2022-12-24T01:51:46;10.40;99.90
25092;DHT22;13082;52.374;4.946;2022-12-24T01:57:09;10.30;99.90
25092;DHT22;13082;52.374;4.946;2022-12-24T01:59:37;10.30;99.90
25092;DHT22;13082;52.374;4.946;2022-12-24T02:02:03;10.30;99.90
25092;DHT22;13082;52.374;4.946;2022-12-24T02:04:36;10.30;99.90
25092;DHT22;13082;52.374;4.946;2022-12-24T02:07:04;10.20;99.90
25092;DHT22;13082;52.374;4.946;2022-12-24T02:09:31;10.20;99.90
25092;DHT22;13082;52.374;4.946;2022-12-24T02:11:58;10.20;99.90
25092;DHT22;13082;52.374;4.946;2022-12-24T02:14:24;10.20;99.90
25092;DHT22;13082;52.374;4.946;2022-12-24T02:17:14;10.20;99.90
25092;DHT22;13082;52.374;4.946;2022-12-24T02:23:15;10.20;99.90
25092;DHT22;13082;52.374;4.946;2022-12-24T02:28:15;10.20;99.90
25092;DHT22;13082;52.374;4.946;2022-12-24T02:30:59;10.10;99.90
25092;DHT22;13082;52.374;4.946;2022-12-24T02:33:54;10.10;99.90
25092;DHT22;13082;52.374;4.946;2022-12-24T02:36:27;10.10;99.90
25092;DHT22;13082;52.374;4.946;2022-12-24T02:39:03;10.10;99.90
25092;DHT22;13082;52.374;4.946;2022-12-24T02:41:33;10.10;99.90
25092;DHT22;13082;52.374;4.946;2022-12-24T02:44:20;10.10;99.90
25092;DHT22;13082;52.374;4.946;2022-12-24T02:46:46;10.10;99.90
25092;DHT22;13082;52.374;4.946;2022-12-24T02:49:12;10.10;99.90
25092;DHT22;13082;52.374;4.946;2022-12-24T02:51:38;10.10;99.90
25092;DHT22;13082;52.374;4.946;2022-12-24T02:54:04;10.10;99.90
25092;DHT22;13082;52.374;4.946;2022-12-24T02:57:07;10.10;99.90
25092;DHT22;13082;52.374;4.946;2022-12-24T03:02:22;10.10;99.90
25092;DHT22;13082;52.374;4.946;2022-12-24T03:05:07;10.10;99.90
25092;DHT22;13082;52.374;4.946;2022-12-24T03:13:15;10.10;99.90
25092;DHT22;13082;52.374;4.946;2022-12-24T03:15:42;10.10;99.90
25092;DHT22;13082;52.374;4.946;2022-12-24T03:18:10;10.10;99.90
25092;DHT22;13082;52.374;4.946;2022-12-24T03:20:39;10.10;99.90
25092;DHT22;13082;52.374;4.946;2022-12-24T03:23:05;10.00;99.90
25092;DHT22;13082;52.374;4.946;2022-12-24T03:25:32;10.00;99.90
25092;DHT22;13082;52.374;4.946;2022-12-24T03:28:02;10.00;99.90
25092;DHT22;13082;52.374;4.946;2022-12-24T03:30:29;10.00;99.90
25092;DHT22;13082;52.374;4.946;2022-12-24T03:32:55;10.00;99.90
25092;DHT22;13082;52.374;4.946;2022-12-24T03:35:20;10.00;99.90
25092;DHT22;13082;52.374;4.946;2022-12-24T03:37:46;10.00;99.90
25092;DHT22;13082;52.374;4.946;2022-12-24T03:40:12;10.00;99.90
25092;DHT22;13082;52.374;4.946;2022-12-24T03:42:38;10.10;99.90
25092;DHT22;13082;52.374;4.946;2022-12-24T03:45:04;10.10;99.90
25092;DHT22;13082;52.374;4.946;2022-12-24T03:47:30;10.00;99.90
25092;DHT22;13082;52.374;4.946;2022-12-24T03:49:56;10.00;99.90
25092;DHT22;13082;52.374;4.946;2022-12-24T03:52:21;10.00;99.90
25092;DHT22;13082;52.374;4.946;2022-12-24T03:54:47;10.00;99.90
25092;DHT22;13082;52.374;4.946;2022-12-24T03:57:13;10.00;99.90
25092;DHT22;13082;52.374;4.946;2022-12-24T03:59:38;10.00;99.90
25092;DHT22;13082;52.374;4.946;2022-12-24T04:02:04;10.00;99.90
25092;DHT22;13082;52.374;4.946;2022-12-24T04:04:29;10.00;99.90
25092;DHT22;13082;52.374;4.946;2022-12-24T04:06:56;10.00;99.90
25092;DHT22;13082;52.374;4.946;2022-12-24T04:09:22;10.10;99.90
25092;DHT22;13082;52.374;4.946;2022-12-24T04:11:47;10.20;99.90
25092;DHT22;13082;52.374;4.946;2022-12-24T04:14:13;10.20;99.90
25092;DHT22;13082;52.374;4.946;2022-12-24T04:16:38;10.20;99.90
25092;DHT22;13082;52.374;4.946;2022-12-24T04:19:04;10.20;99.90
25092;DHT22;13082;52.374;4.946;2022-12-24T04:21:30;10.20;99.90
25092;DHT22;13082;52.374;4.946;2022-12-24T04:23:55;10.20;99.90
25092;DHT22;13082;52.374;4.946;2022-12-24T04:26:21;10.20;99.90
25092;DHT22;13082;52.374;4.946;2022-12-24T04:28:46;10.30;99.90
25092;DHT22;13082;52.374;4.946;2022-12-24T04:31:14;10.30;99.90
25092;DHT22;13082;52.374;4.946;2022-12-24T04:33:44;10.30;99.90
25092;DHT22;13082;52.374;4.946;2022-12-24T04:36:13;10.30;99.90
25092;DHT22;13082;52.374;4.946;2022-12-24T04:38:38;10.30;99.90
25092;DHT22;13082;52.374;4.946;2022-12-24T04:41:09;10.30;99.90
25092;DHT22;13082;52.374;4.946;2022-12-24T04:43:36;10.30;99.90
25092;DHT22;13082;52.374;4.946;2022-12-24T04:46:10;10.30;99.90
25092;DHT22;13082;52.374;4.946;2022-12-24T04:48:37;10.30;99.90
25092;DHT22;13082;52.374;4.946;2022-12-24T04:51:07;10.30;99.90
25092;DHT22;13082;52.374;4.946;2022-12-24T04:53:33;10.30;99.90
25092;DHT22;13082;52.374;4.946;2022-12-24T04:55:59;10.40;99.90
25092;DHT22;13082;52.374;4.946;2022-12-24T04:58:26;10.40;99.90
25092;DHT22;13082;52.374;4.946;2022-12-24T05:00:52;10.30;99.90
25092;DHT22;13082;52.374;4.946;2022-12-24T05:03:18;10.30;99.90
25092;DHT22;13082;52.374;4.946;2022-12-24T05:05:44;10.30;99.90
25092;DHT22;13082;52.374;4.946;2022-12-24T05:08:09;10.30;99.90
25092;DHT22;13082;52.374;4.946;2022-12-24T05:10:35;10.30;99.90
25092;DHT22;13082;52.374;4.946;2022-12-24T05:13:01;10.30;99.90
25092;DHT22;13082;52.374;4.946;2022-12-24T05:15:26;10.30;99.90
25092;DHT22;13082;52.374;4.946;2022-12-24T05:17:52;10.30;99.90
25092;DHT22;13082;52.374;4.946;2022-12-24T05:20:17;10.30;99.90
25092;DHT22;13082;52.374;4.946;2022-12-24T05:22:43;10.30;99.90
25092;DHT22;13082;52.374;4.946;2022-12-24T05:25:37;10.40;99.90
25092;DHT22;13082;52.374;4.946;2022-12-24T05:28:22;10.40;99.90
25092;DHT22;13082;52.374;4.946;2022-12-24T05:30:48;10.40;99.90
25092;DHT22;13082;52.374;4.946;2022-12-24T05:33:13;10.40;99.90
25092;DHT22;13082;52.374;4.946;2022-12-24T05:35:39;10.40;99.90
25092;DHT22;13082;52.374;4.946;2022-12-24T05:38:05;10.40;99.90
25092;DHT22;13082;52.374;4.946;2022-12-24T05:40:30;10.40;99.90
25092;DHT22;13082;52.374;4.946;2022-12-24T05:42:56;10.40;99.90
25092;DHT22;13082;52.374;4.946;2022-12-24T05:45:22;10.40;99.90
25092;DHT22;13082;52.374;4.946;2022-12-24T05:47:47;10.40;99.90
25092;DHT22;13082;52.374;4.946;2022-12-24T05:50:13;10.40;99.90
25092;DHT22;13082;52.374;4.946;2022-12-24T05:52:38;10.50;99.90
25092;DHT22;13082;52.374;4.946;2022-12-24T05:55:04;10.50;99.90
25092;DHT22;13082;52.374;4.946;2022-12-24T05:57:30;10.50;99.90
25092;DHT22;13082;52.374;4.946;2022-12-24T05:59:55;10.50;99.90
25092;DHT22;13082;52.374;4.946;2022-12-24T06:02:21;10.50;99.90
25092;DHT22;13082;52.374;4.946;2022-12-24T06:04:47;10.40;99.90
25092;DHT22;13082;52.374;4.946;2022-12-24T06:07:12;10.40;99.90
25092;DHT22;13082;52.374;4.946;2022-12-24T06:09:38;10.40;99.90
25092;DHT22;13082;52.374;4.946;2022-12-24T06:12:03;10.40;99.90
25092;DHT22;13082;52.374;4.946;2022-12-24T06:14:29;10.40;99.90
25092;DHT22;13082;52.374;4.946;2022-12-24T06:16:55;10.30;99.90
25092;DHT22;13082;52.374;4.946;2022-12-24T06:19:20;10.40;99.90
25092;DHT22;13082;52.374;4.946;2022-12-24T06:21:46;10.40;99.90
25092;DHT22;13082;52.374;4.946;2022-12-24T06:24:12;10.40;99.90
25092;DHT22;13082;52.374;4.946;2022-12-24T06:26:37;10.40;99.90
25092;DHT22;13082;52.374;4.946;2022-12-24T06:29:03;10.40;99.90
25092;DHT22;13082;52.374;4.946;2022-12-24T06:31:28;10.30;99.90
25092;DHT22;13082;52.374;4.946;2022-12-24T06:33:54;10.40;99.90
25092;DHT22;13082;52.374;4.946;2022-12-24T06:36:24;10.30;99.90
25092;DHT22;13082;52.374;4.946;2022-12-24T06:38:51;10.30;99.90
25092;DHT22;13082;52.374;4.946;2022-12-24T06:41:17;10.30;99.90
25092;DHT22;13082;52.374;4.946;2022-12-24T06:43:47;10.40;99.90
25092;DHT22;13082;52.374;4.946;2022-12-24T06:46:14;10.40;99.90
25092;DHT22;13082;52.374;4.946;2022-12-24T06:48:39;10.40;99.90
25092;DHT22;13082;52.374;4.946;2022-12-24T06:51:05;10.40;99.90
25092;DHT22;13082;52.374;4.946;2022-12-24T06:53:31;10.40;99.90
25092;DHT22;13082;52.374;4.946;2022-12-24T06:56:03;10.40;99.90
25092;DHT22;13082;52.374;4.946;2022-12-24T06:58:30;10.40;99.90
25092;DHT22;13082;52.374;4.946;2022-12-24T07:00:55;10.40;99.90
25092;DHT22;13082;52.374;4.946;2022-12-24T07:03:21;10.40;99.90
25092;DHT22;13082;52.374;4.946;2022-12-24T07:05:46;10.40;99.90
25092;DHT22;13082;52.374;4.946;2022-12-24T07:08:12;10.40;99.90
25092;DHT22;13082;52.374;4.946;2022-12-24T07:10:37;10.40;99.90
25092;DHT22;13082;52.374;4.946;2022-12-24T07:13:03;10.40;99.90
25092;DHT22;13082;52.374;4.946;2022-12-24T07:15:29;10.40;99.90
25092;DHT22;13082;52.374;4.946;2022-12-24T07:17:54;10.40;99.90
25092;DHT22;13082;52.374;4.946;2022-12-24T07:20:20;10.40;99.90
25092;DHT22;13082;52.374;4.946;2022-12-24T07:22:45;10.40;99.90
25092;DHT22;13082;52.374;4.946;2022-12-24T07:25:11;10.40;99.90
25092;DHT22;13082;52.374;4.946;2022-12-24T07:27:37;10.40;99.90
25092;DHT22;13082;52.374;4.946;2022-12-24T07:30:03;10.40;99.90
25092;DHT22;13082;52.374;4.946;2022-12-24T07:32:29;10.40;99.90
25092;DHT22;13082;52.374;4.946;2022-12-24T07:34:55;10.40;99.90
25092;DHT22;13082;52.374;4.946;2022-12-24T07:37:20;10.40;99.90
25092;DHT22;13082;52.374;4.946;2022-12-24T07:39:46;10.40;99.90
25092;DHT22;13082;52.374;4.946;2022-12-24T07:42:12;10.30;99.90
25092;DHT22;13082;52.374;4.946;2022-12-24T07:44:37;10.30;99.90
25092;DHT22;13082;52.374;4.946;2022-12-24T07:47:03;10.40;99.90
25092;DHT22;13082;52.374;4.946;2022-12-24T07:49:28;10.40;99.90
25092;DHT22;13082;52.374;4.946;2022-12-24T07:51:54;10.40;99.90
25092;DHT22;13082;52.374;4.946;2022-12-24T07:54:20;10.40;99.90
25092;DHT22;13082;52.374;4.946;2022-12-24T07:56:45;10.40;99.90
25092;DHT22;13082;52.374;4.946;2022-12-24T07:59:13;10.40;99.90
25092;DHT22;13082;52.374;4.946;2022-12-24T08:01:40;10.40;99.90
25092;DHT22;13082;52.374;4.946;2022-12-24T08:04:05;10.40;99.90
25092;DHT22;13082;52.374;4.946;2022-12-24T08:06:31;10.40;99.90
25092;DHT22;13082;52.374;4.946;2022-12-24T08:08:57;10.40;99.90
25092;DHT22;13082;52.374;4.946;2022-12-24T08:11:22;10.40;99.90
25092;DHT22;13082;52.374;4.946;2022-12-24T08:13:48;10.40;99.90
25092;DHT22;13082;52.374;4.946;2022-12-24T08:16:13;10.40;99.90
25092;DHT22;13082;52.374;4.946;2022-12-24T08:18:39;10.40;99.90
25092;DHT22;13082;52.374;4.946;2022-12-24T08:21:08;10.50;99.90
25092;DHT22;13082;52.374;4.946;2022-12-24T08:23:35;10.40;99.90
25092;DHT22;13082;52.374;4.946;2022-12-24T08:26:01;10.40;99.90
25092;DHT22;13082;52.374;4.946;2022-12-24T08:28:27;10.50;99.90
25092;DHT22;13082;52.374;4.946;2022-12-24T08:30:52;10.40;99.90
25092;DHT22;13082;52.374;4.946;2022-12-24T08:33:18;10.40;99.90
25092;DHT22;13082;52.374;4.946;2022-12-24T08:35:52;10.40;99.90
25092;DHT22;13082;52.374;4.946;2022-12-24T08:38:18;10.40;99.90
25092;DHT22;13082;52.374;4.946;2022-12-24T08:40:45;10.50;99.90
25092;DHT22;13082;52.374;4.946;2022-12-24T08:43:18;10.50;99.90
25092;DHT22;13082;52.374;4.946;2022-12-24T08:45:45;10.50;99.90
25092;DHT22;13082;52.374;4.946;2022-12-24T08:48:10;10.50;99.90
25092;DHT22;13082;52.374;4.946;2022-12-24T08:50:40;10.50;99.90
25092;DHT22;13082;52.374;4.946;2022-12-24T08:53:07;10.40;99.90
25092;DHT22;13082;52.374;4.946;2022-12-24T08:55:33;10.50;99.90
25092;DHT22;13082;52.374;4.946;2022-12-24T08:57:59;10.40;99.90
25092;DHT22;13082;52.374;4.946;2022-12-24T09:00:25;10.40;99.90
25092;DHT22;13082;52.374;4.946;2022-12-24T09:02:51;10.40;99.90
25092;DHT22;13082;52.374;4.946;2022-12-24T09:05:17;10.40;99.90
25092;DHT22;13082;52.374;4.946;2022-12-24T09:07:42;10.50;99.90
25092;DHT22;13082;52.374;4.946;2022-12-24T09:10:09;10.50;99.90
25092;DHT22;13082;52.374;4.946;2022-12-24T09:12:35;10.50;99.90
25092;DHT22;13082;52.374;4.946;2022-12-24T09:15:01;10.50;99.90
25092;DHT22;13082;52.374;4.946;2022-12-24T09:17:27;10.50;99.90
25092;DHT22;13082;52.374;4.946;2022-12-24T09:19:52;10.50;99.90
25092;DHT22;13082;52.374;4.946;2022-12-24T09:22:18;10.60;99.90
25092;DHT22;13082;52.374;4.946;2022-12-24T09:24:44;10.50;99.90
25092;DHT22;13082;52.374;4.946;2022-12-24T09:27:09;10.50;99.90
25092;DHT22;13082;52.374;4.946;2022-12-24T09:29:35;10.50;99.90
25092;DHT22;13082;52.374;4.946;2022-12-24T09:32:01;10.50;99.90
25092;DHT22;13082;52.374;4.946;2022-12-24T09:34:26;10.50;99.90
25092;DHT22;13082;52.374;4.946;2022-12-24T09:36:52;10.50;99.90
25092;DHT22;13082;52.374;4.946;2022-12-24T09:39:19;10.50;99.90
25092;DHT22;13082;52.374;4.946;2022-12-24T09:42:14;10.40;99.90
25092;DHT22;13082;52.374;4.946;2022-12-24T09:44:48;10.40;99.90
25092;DHT22;13082;52.374;4.946;2022-12-24T09:49:46;10.40;99.90
25092;DHT22;13082;52.374;4.946;2022-12-24T09:52:22;10.40;99.90
25092;DHT22;13082;52.374;4.946;2022-12-24T09:55:04;10.40;99.90
25092;DHT22;13082;52.374;4.946;2022-12-24T09:57:35;10.40;99.90
25092;DHT22;13082;52.374;4.946;2022-12-24T10:00:03;10.40;99.90
25092;DHT22;13082;52.374;4.946;2022-12-24T10:02:31;10.40;99.90
25092;DHT22;13082;52.374;4.946;2022-12-24T10:04:56;10.30;99.90
25092;DHT22;13082;52.374;4.946;2022-12-24T10:07:26;10.40;99.90
25092;DHT22;13082;52.374;4.946;2022-12-24T10:10:27;10.40;99.90
25092;DHT22;13082;52.374;4.946;2022-12-24T10:12:59;10.40;99.90
25092;DHT22;13082;52.374;4.946;2022-12-24T10:15:57;10.50;99.90
25092;DHT22;13082;52.374;4.946;2022-12-24T10:18:54;10.40;99.90
25092;DHT22;13082;52.374;4.946;2022-12-24T10:24:10;10.50;99.90
25092;DHT22;13082;52.374;4.946;2022-12-24T10:27:00;10.50;99.90
25092;DHT22;13082;52.374;4.946;2022-12-24T10:29:29;10.50;99.90
25092;DHT22;13082;52.374;4.946;2022-12-24T10:34:45;10.60;99.90
25092;DHT22;13082;52.374;4.946;2022-12-24T10:37:16;10.60;99.90
25092;DHT22;13082;52.374;4.946;2022-12-24T10:39:44;10.60;99.90
25092;DHT22;13082;52.374;4.946;2022-12-24T10:42:11;10.60;99.90
25092;DHT22;13082;52.374;4.946;2022-12-24T10:44:39;10.70;99.90
25092;DHT22;13082;52.374;4.946;2022-12-24T10:47:07;10.70;99.90
25092;DHT22;13082;52.374;4.946;2022-12-24T10:49:54;10.70;99.90
25092;DHT22;13082;52.374;4.946;2022-12-24T10:52:26;10.80;99.90
25092;DHT22;13082;52.374;4.946;2022-12-24T10:57:37;10.80;99.90
25092;DHT22;13082;52.374;4.946;2022-12-24T11:00:04;10.90;99.90
25092;DHT22;13082;52.374;4.946;2022-12-24T11:02:37;10.90;99.90
25092;DHT22;13082;52.374;4.946;2022-12-24T11:05:27;10.90;99.90
25092;DHT22;13082;52.374;4.946;2022-12-24T11:10:41;10.90;99.90
25092;DHT22;13082;52.374;4.946;2022-12-24T11:13:33;10.80;99.90
25092;DHT22;13082;52.374;4.946;2022-12-24T11:18:52;10.90;99.90
25092;DHT22;13082;52.374;4.946;2022-12-24T11:21:26;10.90;99.90
25092;DHT22;13082;52.374;4.946;2022-12-24T11:23:58;10.90;99.90
25092;DHT22;13082;52.374;4.946;2022-12-24T11:26:28;10.90;99.90
25092;DHT22;13082;52.374;4.946;2022-12-24T11:29:24;10.90;99.90
25092;DHT22;13082;52.374;4.946;2022-12-24T11:31:51;10.90;99.90
25092;DHT22;13082;52.374;4.946;2022-12-24T11:34:30;10.80;99.90
25092;DHT22;13082;52.374;4.946;2022-12-24T11:37:15;10.80;99.90
25092;DHT22;13082;52.374;4.946;2022-12-24T11:39:47;10.90;99.90
25092;DHT22;13082;52.374;4.946;2022-12-24T11:42:34;10.80;99.90
25092;DHT22;13082;52.374;4.946;2022-12-24T11:45:22;10.80;99.90
25092;DHT22;13082;52.374;4.946;2022-12-24T11:47:49;10.90;99.90
25092;DHT22;13082;52.374;4.946;2022-12-24T11:50:32;10.90;99.90
25092;DHT22;13082;52.374;4.946;2022-12-24T11:55:56;10.90;99.90
25092;DHT22;13082;52.374;4.946;2022-12-24T11:58:44;10.90;99.90
25092;DHT22;13082;52.374;4.946;2022-12-24T12:01:25;10.90;99.90
25092;DHT22;13082;52.374;4.946;2022-12-24T12:03:59;10.90;99.90
25092;DHT22;13082;52.374;4.946;2022-12-24T12:06:37;10.90;99.90
25092;DHT22;13082;52.374;4.946;2022-12-24T12:09:38;10.90;99.90
25092;DHT22;13082;52.374;4.946;2022-12-24T12:14:39;10.80;99.90
25092;DHT22;13082;52.374;4.946;2022-12-24T12:19:54;10.80;99.90
25092;DHT22;13082;52.374;4.946;2022-12-24T12:22:29;10.80;99.90
25092;DHT22;13082;52.374;4.946;2022-12-24T12:24:58;10.80;99.90
25092;DHT22;13082;52.374;4.946;2022-12-24T12:27:34;10.80;99.90
25092;DHT22;13082;52.374;4.946;2022-12-24T12:30:05;10.70;99.90
25092;DHT22;13082;52.374;4.946;2022-12-24T12:32:37;10.70;99.90
25092;DHT22;13082;52.374;4.946;2022-12-24T12:37:53;10.70;99.90
25092;DHT22;13082;52.374;4.946;2022-12-24T12:40:20;10.60;99.90
25092;DHT22;13082;52.374;4.946;2022-12-24T12:43:32;10.60;99.90
25092;DHT22;13082;52.374;4.946;2022-12-24T12:45:54;10.60;99.90
25092;DHT22;13082;52.374;4.946;2022-12-24T12:51:24;10.60;99.90
25092;DHT22;13082;52.374;4.946;2022-12-24T12:57:06;10.60;99.90
25092;DHT22;13082;52.374;4.946;2022-12-24T13:11:15;10.50;99.90
25092;DHT22;13082;52.374;4.946;2022-12-24T13:21:35;10.60;99.90
25092;DHT22;13082;52.374;4.946;2022-12-24T13:24:18;10.60;99.90
25092;DHT22;13082;52.374;4.946;2022-12-24T13:35:21;10.70;99.90
25092;DHT22;13082;52.374;4.946;2022-12-24T13:37:49;10.70;99.90
25092;DHT22;13082;52.374;4.946;2022-12-24T13:40:16;10.70;99.90
25092;DHT22;13082;52.374;4.946;2022-12-24T13:48:12;10.60;99.90
25092;DHT22;13082;52.374;4.946;2022-12-24T13:50:48;10.70;99.90
25092;DHT22;13082;52.374;4.946;2022-12-24T13:53:27;10.70;99.90
25092;DHT22;13082;52.374;4.946;2022-12-24T13:55:55;10.70;99.90
25092;DHT22;13082;52.374;4.946;2022-12-24T13:58:23;10.70;99.90
25092;DHT22;13082;52.374;4.946;2022-12-24T14:00:58;10.70;99.90
25092;DHT22;13082;52.374;4.946;2022-12-24T14:03:48;10.60;99.90
25092;DHT22;13082;52.374;4.946;2022-12-24T14:06:25;10.60;99.90
25092;DHT22;13082;52.374;4.946;2022-12-24T14:08:54;10.50;99.90
25092;DHT22;13082;52.374;4.946;2022-12-24T14:11:23;10.50;99.90
25092;DHT22;13082;52.374;4.946;2022-12-24T14:13:53;10.50;99.90
25092;DHT22;13082;52.374;4.946;2022-12-24T14:16:41;10.50;99.90
25092;DHT22;13082;52.374;4.946;2022-12-24T14:22:01;10.40;99.90
25092;DHT22;13082;52.374;4.946;2022-12-24T14:24:39;10.40;99.90
25092;DHT22;13082;52.374;4.946;2022-12-24T14:27:14;10.40;99.90
25092;DHT22;13082;52.374;4.946;2022-12-24T14:30:02;10.40;99.90
25092;DHT22;13082;52.374;4.946;2022-12-24T14:32:34;10.40;99.90
25092;DHT22;13082;52.374;4.946;2022-12-24T14:35:14;10.40;99.90
25092;DHT22;13082;52.374;4.946;2022-12-24T14:37:44;10.40;99.90
25092;DHT22;13082;52.374;4.946;2022-12-24T14:40:20;10.40;99.90
25092;DHT22;13082;52.374;4.946;2022-12-24T14:48:37;10.40;99.90
25092;DHT22;13082;52.374;4.946;2022-12-24T14:51:09;10.40;99.90
25092;DHT22;13082;52.374;4.946;2022-12-24T14:56:24;10.30;99.90
25092;DHT22;13082;52.374;4.946;2022-12-24T14:58:50;10.20;99.90
25092;DHT22;13082;52.374;4.946;2022-12-24T15:01:24;10.20;99.90
25092;DHT22;13082;52.374;4.946;2022-12-24T15:06:37;10.10;99.90
25092;DHT22;13082;52.374;4.946;2022-12-24T15:09:05;10.10;99.90
25092;DHT22;13082;52.374;4.946;2022-12-24T15:11:31;10.10;99.90
25092;DHT22;13082;52.374;4.946;2022-12-24T15:13:58;10.10;99.90
25092;DHT22;13082;52.374;4.946;2022-12-24T15:16:30;10.10;99.90
25092;DHT22;13082;52.374;4.946;2022-12-24T15:19:02;10.10;99.90
25092;DHT22;13082;52.374;4.946;2022-12-24T15:21:31;10.20;99.90
25092;DHT22;13082;52.374;4.946;2022-12-24T15:23:57;10.10;99.90
25092;DHT22;13082;52.374;4.946;2022-12-24T15:26:30;10.10;99.90
25092;DHT22;13082;52.374;4.946;2022-12-24T15:28:58;10.10;99.90
25092;DHT22;13082;52.374;4.946;2022-12-24T15:31:26;10.00;99.90
25092;DHT22;13082;52.374;4.946;2022-12-24T15:33:55;9.90;99.90
25092;DHT22;13082;52.374;4.946;2022-12-24T15:36:30;9.90;99.90
25092;DHT22;13082;52.374;4.946;2022-12-24T15:38:59;9.90;99.90
25092;DHT22;13082;52.374;4.946;2022-12-24T15:41:30;10.00;99.90
25092;DHT22;13082;52.374;4.946;2022-12-24T15:44:00;9.90;99.90
25092;DHT22;13082;52.374;4.946;2022-12-24T15:46:29;10.00;99.90
25092;DHT22;13082;52.374;4.946;2022-12-24T15:48:57;9.90;99.90
25092;DHT22;13082;52.374;4.946;2022-12-24T15:51:29;9.90;99.90
25092;DHT22;13082;52.374;4.946;2022-12-24T15:54:05;9.90;99.90
25092;DHT22;13082;52.374;4.946;2022-12-24T15:59:25;9.80;99.90
25092;DHT22;13082;52.374;4.946;2022-12-24T16:01:52;9.80;99.90
25092;DHT22;13082;52.374;4.946;2022-12-24T16:04:27;9.80;99.90
25092;DHT22;13082;52.374;4.946;2022-12-24T16:07:02;9.70;99.90
25092;DHT22;13082;52.374;4.946;2022-12-24T16:12:01;9.70;99.90
25092;DHT22;13082;52.374;4.946;2022-12-24T16:14:27;9.80;99.90
25092;DHT22;13082;52.374;4.946;2022-12-24T16:16:53;9.70;99.90
25092;DHT22;13082;52.374;4.946;2022-12-24T16:19:26;9.70;99.90
25092;DHT22;13082;52.374;4.946;2022-12-24T16:22:00;9.70;99.90
25092;DHT22;13082;52.374;4.946;2022-12-24T16:24:49;9.60;99.90
25092;DHT22;13082;52.374;4.946;2022-12-24T16:27:16;9.70;99.90
25092;DHT22;13082;52.374;4.946;2022-12-24T16:29:42;9.70;99.90
25092;DHT22;13082;52.374;4.946;2022-12-24T16:32:29;9.60;99.90
25092;DHT22;13082;52.374;4.946;2022-12-24T16:34:55;9.60;99.90
25092;DHT22;13082;52.374;4.946;2022-12-24T16:37:21;9.60;99.90
25092;DHT22;13082;52.374;4.946;2022-12-24T16:39:47;9.50;99.90
25092;DHT22;13082;52.374;4.946;2022-12-24T16:42:13;9.50;99.90
25092;DHT22;13082;52.374;4.946;2022-12-24T16:44:57;9.40;99.90
25092;DHT22;13082;52.374;4.946;2022-12-24T16:47:27;9.40;99.90
25092;DHT22;13082;52.374;4.946;2022-12-24T16:49:58;9.40;99.90
25092;DHT22;13082;52.374;4.946;2022-12-24T16:52:28;9.40;99.90
25092;DHT22;13082;52.374;4.946;2022-12-24T16:54:55;9.40;99.90
25092;DHT22;13082;52.374;4.946;2022-12-24T16:57:21;9.40;99.90
25092;DHT22;13082;52.374;4.946;2022-12-24T16:59:47;9.40;99.90
25092;DHT22;13082;52.374;4.946;2022-12-24T17:02:16;9.30;99.90
25092;DHT22;13082;52.374;4.946;2022-12-24T17:04:42;9.30;99.90
25092;DHT22;13082;52.374;4.946;2022-12-24T17:07:13;9.30;99.90
25092;DHT22;13082;52.374;4.946;2022-12-24T17:09:39;9.20;99.90
25092;DHT22;13082;52.374;4.946;2022-12-24T17:12:05;9.10;99.90
25092;DHT22;13082;52.374;4.946;2022-12-24T17:14:30;9.10;99.90
25092;DHT22;13082;52.374;4.946;2022-12-24T17:16:56;9.10;99.90
25092;DHT22;13082;52.374;4.946;2022-12-24T17:19:21;9.10;99.90
25092;DHT22;13082;52.374;4.946;2022-12-24T17:21:47;9.00;99.90
25092;DHT22;13082;52.374;4.946;2022-12-24T17:24:13;9.00;99.90
25092;DHT22;13082;52.374;4.946;2022-12-24T17:26:39;8.90;99.90
25092;DHT22;13082;52.374;4.946;2022-12-24T17:29:06;8.90;99.90
25092;DHT22;13082;52.374;4.946;2022-12-24T17:31:32;8.90;99.90
25092;DHT22;13082;52.374;4.946;2022-12-24T17:33:58;8.90;99.90